Time;durP1;ratioP1;P1;durP2;ratioP2;P2;SDS_P1;SDS_P2;PMS_P1;PMS_P2;Temp;Humidity;BMP_temperature;BMP_pressure;BME280_temperature;BME280_humidity;BME280_pressure;Samples;Min_cycle;Max_cycle;Signal;HPM_P1;HPM_P2
2022/06/19 00:01:03;;;;;;;3.78;2.38;;;19.50;88.10;;;;;;5051636;28;20036;-72
2022/06/19 00:03:34;;;;;;;6.60;2.38;;;19.50;89.50;;;;;;5036448;28;20052;-72
2022/06/19 00:06:02;;;;;;;5.85;2.30;;;19.50;89.60;;;;;;5038224;28;20103;-73
2022/06/19 00:08:30;;;;;;;3.35;2.25;;;19.50;89.80;;;;;;5038913;28;20141;-72
2022/06/19 00:10:58;;;;;;;4.25;2.20;;;19.40;89.80;;;;;;5039278;28;20043;-72
2022/06/19 00:13:25;;;;;;;5.15;3.17;;;19.40;90.00;;;;;;5040318;28;20045;-72
2022/06/19 00:15:54;;;;;;;3.70;2.55;;;19.40;90.00;;;;;;5039535;28;20540;-72
2022/06/19 00:18:21;;;;;;;4.07;2.60;;;19.40;89.80;;;;;;5040417;28;20052;-72
2022/06/19 00:20:48;;;;;;;3.22;2.35;;;19.30;89.90;;;;;;5036757;28;21041;-73
2022/06/19 00:23:16;;;;;;;4.32;2.60;;;19.30;90.20;;;;;;5039125;28;20078;-73
2022/06/19 00:25:43;;;;;;;5.57;2.47;;;19.30;90.20;;;;;;5036773;28;20033;-73
2022/06/19 00:28:11;;;;;;;4.30;2.38;;;19.20;90.90;;;;;;5036420;28;20045;-73
2022/06/19 00:30:39;;;;;;;3.95;2.30;;;19.20;90.70;;;;;;5039213;28;21790;-72
2022/06/19 00:33:06;;;;;;;4.10;2.60;;;19.20;90.60;;;;;;5035117;28;20083;-73
2022/06/19 00:35:33;;;;;;;4.05;2.70;;;19.10;90.90;;;;;;5038462;28;20037;-73
2022/06/19 00:38:00;;;;;;;4.63;2.72;;;19.20;91.10;;;;;;5022293;28;20095;-72
2022/06/19 00:40:32;;;;;;;6.65;2.35;;;19.10;91.00;;;;;;5024632;28;20056;-73
2022/06/19 00:42:59;;;;;;;4.82;2.45;;;19.10;91.40;;;;;;5040398;28;20048;-73
2022/06/19 00:45:41;;;;;;;6.82;2.80;;;19.00;91.00;;;;;;5042062;28;20049;-73
2022/06/19 00:48:37;;;;;;;5.60;2.80;;;19.00;91.40;;;;;;5036252;28;20042;-73
2022/06/19 00:51:05;;;;;;;5.45;2.72;;;19.00;91.40;;;;;;5036394;28;20128;-73
2022/06/19 00:53:43;;;;;;;4.65;2.42;;;19.00;90.70;;;;;;5040341;28;20037;-73
2022/06/19 00:56:19;;;;;;;3.65;2.60;;;19.00;90.50;;;;;;5041709;28;20523;-73
2022/06/19 00:58:50;;;;;;;4.47;2.40;;;18.90;90.70;;;;;;5035201;28;20053;-73
2022/06/19 01:01:21;;;;;;;3.40;2.03;;;18.90;90.80;;;;;;5021812;28;20049;-72
2022/06/19 01:03:58;;;;;;;7.70;2.53;;;18.80;90.90;;;;;;5040003;28;20049;-72
2022/06/19 01:06:26;;;;;;;5.43;2.92;;;18.80;91.00;;;;;;5023954;28;20042;-73
2022/06/19 01:08:55;;;;;;;4.97;2.65;;;18.80;90.90;;;;;;5038044;28;20108;-73
2022/06/19 01:11:26;;;;;;;4.90;2.53;;;18.80;90.90;;;;;;5020953;28;20041;-73
2022/06/19 01:13:53;;;;;;;5.65;2.55;;;18.70;91.10;;;;;;5026055;28;20045;-73
2022/06/19 01:16:20;;;;;;;5.65;3.03;;;18.70;91.30;;;;;;5039673;28;20103;-73
2022/06/19 01:18:47;;;;;;;4.05;3.03;;;18.60;91.30;;;;;;5040482;28;20041;-72
2022/06/19 01:21:27;;;;;;;3.53;2.40;;;18.60;91.50;;;;;;5035566;28;20091;-72
2022/06/19 01:24:06;;;;;;;5.32;2.72;;;18.60;91.70;;;;;;5038939;28;20064;-73
2022/06/19 01:26:39;;;;;;;4.40;2.58;;;18.60;91.50;;;;;;5038452;28;21315;-73
2022/06/19 01:29:07;;;;;;;3.30;2.30;;;18.60;91.80;;;;;;5021154;28;20037;-73
2022/06/19 01:31:45;;;;;;;3.25;2.75;;;18.50;91.80;;;;;;5037316;28;20044;-72
2022/06/19 01:34:29;;;;;;;4.13;2.42;;;18.50;92.00;;;;;;5018102;28;20045;-73
2022/06/19 01:37:07;;;;;;;4.20;2.97;;;18.50;92.10;;;;;;5035909;28;20052;-73
2022/06/19 01:39:38;;;;;;;4.93;2.80;;;18.50;92.10;;;;;;5039086;28;20072;-72
2022/06/19 01:42:07;;;;;;;5.95;3.30;;;18.50;92.20;;;;;;5039037;28;20490;-73
2022/06/19 01:44:36;;;;;;;6.55;2.92;;;18.40;92.20;;;;;;5019432;28;20132;-73
2022/06/19 01:47:04;;;;;;;4.28;2.72;;;18.40;92.90;;;;;;5035816;28;20042;-73
2022/06/19 01:49:34;;;;;;;4.07;2.88;;;18.40;92.40;;;;;;5037365;28;20037;-72
2022/06/19 01:52:05;;;;;;;3.85;3.10;;;18.40;92.30;;;;;;5035200;28;20053;-72
2022/06/19 01:54:42;;;;;;;5.50;2.97;;;18.40;92.70;;;;;;5038580;28;20048;-73
2022/06/19 01:57:11;;;;;;;4.72;2.92;;;18.30;93.10;;;;;;5036716;28;20754;-72
2022/06/19 01:59:42;;;;;;;5.70;2.85;;;18.30;92.80;;;;;;5023388;28;22358;-74
2022/06/19 02:02:12;;;;;;;5.97;3.10;;;18.30;92.90;;;;;;5036910;28;20040;-74
2022/06/19 02:04:40;;;;;;;5.18;3.25;;;18.30;92.90;;;;;;5039432;28;20040;-74
2022/06/19 02:07:12;;;;;;;5.20;2.70;;;18.30;92.70;;;;;;5036273;28;20041;-74
2022/06/19 02:09:39;;;;;;;5.13;3.00;;;18.20;92.90;;;;;;5038832;28;20048;-74
2022/06/19 02:12:07;;;;;;;5.13;2.97;;;18.20;92.90;;;;;;5034794;28;20278;-74
2022/06/19 02:14:34;;;;;;;4.68;3.15;;;18.10;93.00;;;;;;5036940;28;20041;-74
2022/06/19 02:17:11;;;;;;;4.32;2.97;;;18.10;93.50;;;;;;5033981;28;20037;-74
2022/06/19 02:19:38;;;;;;;6.00;3.13;;;18.10;93.30;;;;;;5019703;28;20098;-74
2022/06/19 02:22:11;;;;;;;5.47;3.13;;;18.00;93.00;;;;;;5033374;28;20065;-74
2022/06/19 02:24:40;;;;;;;4.15;2.80;;;18.10;93.00;;;;;;5035787;28;20801;-74
2022/06/19 02:27:08;;;;;;;4.93;3.10;;;18.10;93.00;;;;;;5037296;28;20091;-74
2022/06/19 02:29:38;;;;;;;4.63;3.00;;;18.00;92.90;;;;;;5032613;28;20076;-74
2022/06/19 02:32:07;;;;;;;6.00;3.10;;;18.00;93.00;;;;;;5033909;28;20045;-74
2022/06/19 02:34:40;;;;;;;4.97;3.08;;;17.90;93.20;;;;;;5034592;28;20061;-72
2022/06/19 02:37:17;;;;;;;5.15;3.45;;;17.90;93.40;;;;;;5038921;28;20073;-74
2022/06/19 02:40:00;;;;;;;4.95;3.20;;;17.90;93.00;;;;;;5036212;28;20047;-73
2022/06/19 02:42:36;;;;;;;7.82;2.75;;;17.90;93.20;;;;;;5034104;28;20139;-73
2022/06/19 02:45:10;;;;;;;3.88;2.90;;;17.80;93.30;;;;;;5036087;28;20596;-73
2022/06/19 02:47:38;;;;;;;5.15;2.92;;;17.80;93.50;;;;;;5038429;28;20603;-73
2022/06/19 02:50:07;;;;;;;4.55;2.88;;;17.90;93.60;;;;;;5034227;28;20037;-73
2022/06/19 02:52:35;;;;;;;4.03;3.17;;;17.90;94.00;;;;;;5039278;28;20037;-72
2022/06/19 02:55:02;;;;;;;4.82;3.00;;;17.90;94.00;;;;;;5036594;28;20041;-72
2022/06/19 02:57:29;;;;;;;4.85;3.00;;;17.90;94.10;;;;;;5036802;28;20042;-72
2022/06/19 02:59:56;;;;;;;4.38;2.70;;;17.80;93.90;;;;;;5042472;28;20049;-73
2022/06/19 03:02:23;;;;;;;3.22;2.72;;;17.90;93.70;;;;;;5040282;28;20049;-72
2022/06/19 03:04:56;;;;;;;4.68;3.13;;;17.80;93.60;;;;;;5041540;28;20059;-75
2022/06/19 03:07:25;;;;;;;5.45;2.90;;;17.80;93.90;;;;;;5044061;28;20051;-72
2022/06/19 03:09:52;;;;;;;5.57;3.33;;;17.70;94.30;;;;;;5037696;28;20024;-72
2022/06/19 03:12:20;;;;;;;3.25;2.85;;;17.80;94.20;;;;;;5034037;28;20040;-72
2022/06/19 03:14:50;;;;;;;3.88;2.63;;;17.70;93.80;;;;;;5040913;28;20119;-74
2022/06/19 03:17:19;;;;;;;4.22;2.83;;;17.70;94.00;;;;;;5040468;28;20045;-73
2022/06/19 03:19:53;;;;;;;7.47;3.00;;;17.70;93.80;;;;;;5040384;28;22481;-72
2022/06/19 03:22:21;;;;;;;4.00;2.58;;;17.80;94.10;;;;;;5043742;28;20498;-72
2022/06/19 03:24:49;;;;;;;5.47;2.88;;;17.80;94.30;;;;;;5039341;28;20051;-72
2022/06/19 03:27:16;;;;;;;7.13;3.40;;;17.80;94.30;;;;;;5035444;28;22553;-72
2022/06/19 03:29:44;;;;;;;5.43;2.70;;;17.80;94.30;;;;;;5039087;28;20080;-72
2022/06/19 03:32:13;;;;;;;6.53;3.10;;;17.70;94.20;;;;;;5037844;28;20068;-72
2022/06/19 03:34:42;;;;;;;5.88;3.45;;;17.80;94.60;;;;;;5038059;28;20098;-72
2022/06/19 03:37:10;;;;;;;4.97;3.53;;;17.70;94.40;;;;;;5042675;28;20051;-72
2022/06/19 03:39:37;;;;;;;6.85;3.05;;;17.80;94.10;;;;;;5039452;28;20052;-73
2022/06/19 03:42:05;;;;;;;5.55;3.55;;;17.90;93.90;;;;;;5041182;28;20046;-72
2022/06/19 03:44:33;;;;;;;4.35;3.08;;;17.90;94.30;;;;;;5036546;28;22475;-73
2022/06/19 03:47:00;;;;;;;5.95;3.13;;;17.90;94.40;;;;;;5038471;28;20045;-72
2022/06/19 03:49:28;;;;;;;4.30;3.10;;;17.90;94.70;;;;;;5041529;28;20123;-73
2022/06/19 03:51:55;;;;;;;4.05;2.85;;;17.90;94.70;;;;;;5038316;28;20116;-73
2022/06/19 03:54:22;;;;;;;6.30;3.20;;;18.00;94.60;;;;;;5042565;28;20056;-72
2022/06/19 03:56:49;;;;;;;6.63;3.90;;;18.00;94.40;;;;;;5039914;28;20547;-72
2022/06/19 03:59:16;;;;;;;5.80;3.42;;;18.00;94.50;;;;;;5040746;28;20963;-72
2022/06/19 04:01:43;;;;;;;4.47;3.35;;;18.10;94.10;;;;;;5039501;28;20044;-74
2022/06/19 04:04:11;;;;;;;6.15;3.90;;;18.20;93.70;;;;;;5030926;28;20048;-72
2022/06/19 04:06:40;;;;;;;5.03;3.10;;;18.20;93.70;;;;;;5034974;28;20037;-73
2022/06/19 04:09:13;;;;;;;8.30;3.88;;;18.30;93.50;;;;;;5035233;28;20048;-73
2022/06/19 04:11:41;;;;;;;5.88;4.10;;;18.30;93.40;;;;;;5027423;28;20049;-73
2022/06/19 04:14:10;;;;;;;11.07;4.00;;;18.30;93.50;;;;;;5039712;28;20079;-73
2022/06/19 04:16:38;;;;;;;7.10;3.80;;;18.40;93.50;;;;;;5053898;28;20048;-73
2022/06/19 04:19:06;;;;;;;5.95;3.90;;;18.40;93.50;;;;;;5039796;28;20045;-73
2022/06/19 04:21:39;;;;;;;5.82;4.07;;;18.50;94.00;;;;;;5037623;28;20036;-73
2022/06/19 04:24:11;;;;;;;6.70;4.10;;;18.60;93.70;;;;;;5041660;28;20041;-73
2022/06/19 04:26:39;;;;;;;6.90;3.78;;;18.70;93.40;;;;;;5036965;28;20045;-73
2022/06/19 04:29:08;;;;;;;5.65;3.70;;;18.80;93.20;;;;;;5027123;28;20052;-73
2022/06/19 04:31:35;;;;;;;4.78;3.83;;;18.80;93.50;;;;;;5038408;28;20517;-73
2022/06/19 04:34:03;;;;;;;8.68;4.50;;;19.00;93.40;;;;;;5040521;28;20041;-73
2022/06/19 04:36:31;;;;;;;8.85;4.50;;;19.00;93.30;;;;;;5037192;28;20049;-73
2022/06/19 04:38:59;;;;;;;6.95;4.60;;;19.10;94.00;;;;;;5039138;28;20523;-75
2022/06/19 04:41:29;;;;;;;6.90;4.38;;;19.20;94.10;;;;;;5038153;28;20044;-75
2022/06/19 04:43:58;;;;;;;6.65;4.90;;;19.30;94.10;;;;;;5037107;28;20041;-74
2022/06/19 04:46:26;;;;;;;8.30;4.43;;;19.40;94.70;;;;;;5039702;28;20072;-75
2022/06/19 04:48:54;;;;;;;8.02;4.55;;;19.40;95.10;;;;;;5037162;28;20037;-74
2022/06/19 04:51:21;;;;;;;6.75;4.63;;;19.50;94.50;;;;;;5038863;28;20041;-73
2022/06/19 04:53:48;;;;;;;6.20;4.43;;;19.60;93.30;;;;;;5033405;28;20053;-73
2022/06/19 04:56:18;;;;;;;8.52;4.80;;;19.60;92.50;;;;;;5037958;28;20041;-75
2022/06/19 04:58:46;;;;;;;6.32;4.80;;;19.60;92.60;;;;;;5040227;28;20040;-73
2022/06/19 05:01:23;;;;;;;6.97;4.05;;;19.80;92.60;;;;;;5027593;28;22477;-73
2022/06/19 05:03:53;;;;;;;7.07;4.35;;;20.00;92.30;;;;;;5017337;28;20102;-75
2022/06/19 05:06:21;;;;;;;6.47;4.13;;;20.10;91.90;;;;;;5012701;28;20045;-73
2022/06/19 05:08:49;;;;;;;7.20;3.67;;;20.20;92.20;;;;;;4996647;28;22424;-73
2022/06/19 05:11:17;;;;;;;6.93;4.10;;;20.30;91.20;;;;;;5011132;28;20078;-73
2022/06/19 05:13:45;;;;;;;7.97;4.97;;;20.40;91.80;;;;;;5024715;28;20052;-73
2022/06/19 05:16:15;;;;;;;7.72;4.15;;;20.60;91.00;;;;;;5013375;28;20259;-74
2022/06/19 05:18:44;;;;;;;6.13;4.35;;;20.70;91.20;;;;;;4989099;28;20057;-73
2022/06/19 05:21:17;;;;;;;6.45;4.35;;;20.80;91.00;;;;;;5007714;28;20049;-73
2022/06/19 05:23:47;;;;;;;7.13;4.68;;;20.90;90.80;;;;;;5012631;28;20053;-73
2022/06/19 05:26:17;;;;;;;9.57;4.47;;;20.90;89.20;;;;;;4998865;28;20054;-73
2022/06/19 05:28:48;;;;;;;7.82;4.47;;;21.10;90.20;;;;;;5024159;28;20057;-73
2022/06/19 05:31:16;;;;;;;6.93;4.60;;;21.30;90.30;;;;;;5008278;28;20096;-73
2022/06/19 05:33:44;;;;;;;6.78;4.95;;;21.40;90.10;;;;;;5005105;28;20045;-73
2022/06/19 05:36:12;;;;;;;5.70;3.95;;;21.60;87.00;;;;;;5005927;28;20107;-73
2022/06/19 05:38:39;;;;;;;9.07;4.00;;;21.80;87.50;;;;;;5008496;28;20071;-73
2022/06/19 05:41:07;;;;;;;6.13;3.85;;;22.00;86.50;;;;;;5008822;28;20053;-73
2022/06/19 05:43:35;;;;;;;6.05;4.25;;;22.10;85.60;;;;;;5016709;28;22524;-73
2022/06/19 05:46:05;;;;;;;5.53;3.33;;;22.20;85.70;;;;;;5006038;28;20045;-73
2022/06/19 05:48:34;;;;;;;6.35;3.88;;;22.30;83.50;;;;;;5023973;28;22729;-72
2022/06/19 05:51:08;;;;;;;6.18;2.90;;;22.30;80.60;;;;;;5007322;28;20099;-73
2022/06/19 05:53:41;;;;;;;5.75;3.65;;;22.40;81.70;;;;;;5015647;28;20067;-73
2022/06/19 05:56:09;;;;;;;5.43;3.20;;;22.60;83.50;;;;;;5009837;28;20060;-74
2022/06/19 05:58:37;;;;;;;3.78;2.92;;;22.70;81.30;;;;;;5022076;28;20057;-73
2022/06/19 06:01:05;;;;;;;3.53;2.42;;;22.60;77.90;;;;;;5009088;28;20059;-73
2022/06/19 06:03:32;;;;;;;5.72;2.80;;;22.70;76.80;;;;;;5011268;28;20071;-74
2022/06/19 06:06:01;;;;;;;3.47;2.83;;;22.80;77.30;;;;;;5012194;28;20049;-74
2022/06/19 06:08:29;;;;;;;3.72;2.92;;;23.00;77.80;;;;;;4999854;28;20108;-74
2022/06/19 06:10:56;;;;;;;4.38;2.72;;;23.20;79.50;;;;;;5002349;28;20049;-74
2022/06/19 06:13:24;;;;;;;3.45;2.63;;;23.30;78.10;;;;;;5015196;28;20052;-74
2022/06/19 06:15:51;;;;;;;3.55;3.00;;;23.30;77.10;;;;;;5000053;28;20057;-74
2022/06/19 06:18:18;;;;;;;5.88;3.08;;;23.40;76.50;;;;;;5012991;28;20053;-74
2022/06/19 06:20:56;;;;;;;3.20;2.50;;;23.50;76.30;;;;;;4997753;28;20135;-74
2022/06/19 06:23:25;;;;;;;4.63;2.40;;;23.70;75.00;;;;;;5016164;28;20053;-74
2022/06/19 06:26:05;;;;;;;3.70;2.80;;;23.70;73.20;;;;;;5012780;28;20103;-74
2022/06/19 06:28:32;;;;;;;2.38;2.17;;;23.90;74.20;;;;;;5013254;28;20048;-74
2022/06/19 06:31:00;;;;;;;4.72;2.50;;;24.10;74.40;;;;;;5012560;28;20065;-74
2022/06/19 06:33:28;;;;;;;3.88;2.28;;;24.10;73.60;;;;;;5006244;28;20053;-74
2022/06/19 06:35:56;;;;;;;5.30;2.67;;;24.30;73.90;;;;;;4998925;28;20060;-75
2022/06/19 06:38:24;;;;;;;5.43;2.13;;;24.40;73.40;;;;;;5013414;28;22518;-75
2022/06/19 06:40:52;;;;;;;5.20;2.17;;;24.60;73.30;;;;;;5027561;28;20045;-74
2022/06/19 06:43:21;;;;;;;2.80;1.90;;;24.70;72.50;;;;;;5027405;28;21215;-74
2022/06/19 06:45:48;;;;;;;2.42;1.80;;;24.90;71.10;;;;;;5008331;28;20053;-75
2022/06/19 06:48:16;;;;;;;4.78;2.00;;;24.70;69.30;;;;;;5011378;28;20041;-74
2022/06/19 06:50:45;;;;;;;2.67;1.75;;;24.80;70.60;;;;;;5014448;28;20146;-75
2022/06/19 06:53:13;;;;;;;2.78;1.92;;;24.90;69.10;;;;;;5001774;28;20054;-74
2022/06/19 06:55:44;;;;;;;3.22;2.00;;;25.20;69.00;;;;;;5010258;28;20049;-74
2022/06/19 06:58:11;;;;;;;2.65;1.90;;;25.20;69.90;;;;;;5011463;28;20045;-74
2022/06/19 07:00:38;;;;;;;4.22;2.38;;;25.40;69.60;;;;;;5009958;28;20037;-74
2022/06/19 07:03:06;;;;;;;3.15;1.85;;;25.40;68.90;;;;;;5012438;28;20049;-74
2022/06/19 07:05:33;;;;;;;3.17;2.25;;;25.60;68.70;;;;;;5005518;28;20152;-75
2022/06/19 07:08:00;;;;;;;2.42;1.90;;;25.70;68.10;;;;;;5013711;28;20048;-75
2022/06/19 07:10:27;;;;;;;3.40;1.90;;;25.80;68.00;;;;;;5012942;28;20167;-75
2022/06/19 07:12:55;;;;;;;2.45;1.60;;;25.70;66.30;;;;;;5011457;28;20042;-74
2022/06/19 07:15:22;;;;;;;5.47;2.03;;;25.90;65.00;;;;;;5013243;28;20053;-75
2022/06/19 07:17:49;;;;;;;4.35;2.40;;;25.80;66.30;;;;;;5015086;28;20084;-74
2022/06/19 07:20:16;;;;;;;4.95;2.00;;;25.90;65.70;;;;;;5014590;28;20167;-75
2022/06/19 07:22:44;;;;;;;3.90;2.10;;;25.90;66.70;;;;;;4996313;28;20064;-75
2022/06/19 07:25:21;;;;;;;3.22;1.63;;;26.10;66.10;;;;;;4999369;28;20535;-75
2022/06/19 07:27:48;;;;;;;2.90;1.63;;;26.20;66.10;;;;;;5001666;28;20049;-75
2022/06/19 07:30:22;;;;;;;6.97;1.70;;;26.40;66.70;;;;;;5004793;28;20057;-75
2022/06/19 07:32:49;;;;;;;5.50;1.35;;;26.40;65.00;;;;;;5014793;28;20181;-75
2022/06/19 07:35:17;;;;;;;4.50;1.10;;;26.50;64.90;;;;;;5016985;28;20038;-75
2022/06/19 07:37:44;;;;;;;3.70;2.25;;;26.60;62.90;;;;;;5016711;28;20151;-76
2022/06/19 07:40:15;;;;;;;3.67;1.33;;;26.60;60.90;;;;;;5012660;28;20053;-75
2022/06/19 07:42:43;;;;;;;1.95;1.00;;;26.70;59.40;;;;;;5018787;28;20780;-74
2022/06/19 07:45:12;;;;;;;1.95;1.02;;;26.90;57.10;;;;;;5022064;28;20064;-75
2022/06/19 07:50:29;;;;;;;3.22;0.98;;;26.90;57.70;;;;;;5021567;28;20142;-75
2022/06/19 07:52:57;;;;;;;1.80;1.00;;;27.00;56.50;;;;;;5005577;28;20052;-76
2022/06/19 07:55:26;;;;;;;1.67;0.75;;;27.10;59.40;;;;;;5017288;28;20049;-75
2022/06/19 07:57:54;;;;;;;1.13;0.82;;;27.30;57.40;;;;;;5008197;28;20056;-74
2022/06/19 08:00:29;;;;;;;2.55;0.80;;;27.20;58.10;;;;;;5027671;28;20052;-75
2022/06/19 08:02:57;;;;;;;3.25;1.70;;;27.20;58.00;;;;;;5019522;28;22493;-75
2022/06/19 08:05:27;;;;;;;3.25;1.35;;;27.40;57.70;;;;;;5018311;28;20053;-75
2022/06/19 08:07:57;;;;;;;1.67;1.35;;;27.40;58.50;;;;;;5016243;28;20706;-74
2022/06/19 08:10:31;;;;;;;2.78;1.30;;;27.50;58.30;;;;;;5019561;28;20045;-75
2022/06/19 08:12:58;;;;;;;2.17;1.38;;;27.40;56.80;;;;;;5019233;28;20067;-73
2022/06/19 08:15:27;;;;;;;1.75;1.27;;;27.40;55.60;;;;;;5013653;28;22248;-76
2022/06/19 08:17:54;;;;;;;5.47;1.30;;;27.50;55.90;;;;;;5013363;28;20126;-74
2022/06/19 08:20:23;;;;;;;2.15;1.10;;;27.60;56.10;;;;;;5013611;28;20048;-75
2022/06/19 08:22:50;;;;;;;1.60;0.90;;;27.70;56.60;;;;;;5021399;28;20076;-74
2022/06/19 08:25:19;;;;;;;3.75;1.55;;;27.80;55.40;;;;;;5023116;28;20052;-73
2022/06/19 08:27:49;;;;;;;1.63;0.95;;;27.70;55.70;;;;;;5014201;28;20056;-74
2022/06/19 08:30:29;;;;;;;3.38;1.13;;;27.70;55.30;;;;;;5021288;28;20080;-74
2022/06/19 08:33:02;;;;;;;4.38;1.40;;;27.80;57.10;;;;;;5016858;28;20041;-74
2022/06/19 08:35:34;;;;;;;4.05;1.00;;;27.80;54.80;;;;;;5003860;28;20161;-74
2022/06/19 08:38:06;;;;;;;2.17;1.33;;;27.90;53.60;;;;;;5024158;28;20114;-75
2022/06/19 08:41:01;;;;;;;1.88;1.15;;;27.80;53.60;;;;;;5021221;28;20816;-75
2022/06/19 08:43:37;;;;;;;2.53;1.35;;;27.80;52.10;;;;;;5018383;28;20053;-74
2022/06/19 08:46:04;;;;;;;2.30;1.52;;;27.90;52.20;;;;;;5024257;28;20053;-75
2022/06/19 08:48:43;;;;;;;2.72;1.88;;;27.90;52.60;;;;;;5031112;28;20046;-75
2022/06/19 08:51:38;;;;;;;2.33;1.30;;;27.90;53.20;;;;;;5024785;28;20057;-74
2022/06/19 08:54:26;;;;;;;4.82;2.35;;;28.00;51.70;;;;;;5019756;28;20100;-75
2022/06/19 08:57:25;;;;;;;2.50;1.63;;;28.00;53.70;;;;;;5024446;28;20053;-74
2022/06/19 09:00:27;;;;;;;2.58;1.75;;;28.00;51.60;;;;;;5032836;28;20053;-76
2022/06/19 09:02:55;;;;;;;3.35;2.00;;;28.00;52.50;;;;;;5015251;28;20132;-75
2022/06/19 09:05:50;;;;;;;4.00;2.05;;;27.90;51.90;;;;;;5019010;28;22566;-75
2022/06/19 09:08:37;;;;;;;2.63;1.38;;;28.00;52.00;;;;;;5016700;28;20073;-75
2022/06/19 09:11:26;;;;;;;3.25;1.38;;;28.00;53.20;;;;;;5013277;28;20049;-75
2022/06/19 09:14:15;;;;;;;2.47;1.00;;;28.00;52.00;;;;;;5022046;28;20184;-76
2022/06/19 09:16:42;;;;;;;2.33;0.90;;;28.00;51.80;;;;;;5017753;28;20191;-75
2022/06/19 09:19:18;;;;;;;4.00;1.63;;;28.10;52.40;;;;;;5020853;28;20148;-75
2022/06/19 09:22:24;;;;;;;2.80;1.20;;;28.10;51.80;;;;;;5013429;28;20071;-73
2022/06/19 09:25:04;;;;;;;2.13;1.02;;;28.20;50.80;;;;;;5015654;28;20049;-75
2022/06/19 09:28:02;;;;;;;2.63;1.13;;;28.20;49.60;;;;;;5028147;28;20053;-75
2022/06/19 09:30:53;;;;;;;3.05;1.20;;;28.20;49.60;;;;;;5012909;28;20207;-74
2022/06/19 09:33:23;;;;;;;4.20;1.10;;;28.00;51.60;;;;;;5013242;28;20049;-75
2022/06/19 09:35:57;;;;;;;5.22;1.08;;;28.10;50.60;;;;;;5012719;28;20052;-75
2022/06/19 09:38:35;;;;;;;1.92;1.17;;;28.20;52.20;;;;;;5010761;28;20930;-76
2022/06/19 09:41:08;;;;;;;2.28;1.15;;;28.40;51.20;;;;;;4999057;28;20050;-75
2022/06/19 09:43:42;;;;;;;5.28;1.10;;;28.60;53.10;;;;;;5008727;28;20045;-75
2022/06/19 09:46:25;;;;;;;5.05;1.20;;;28.50;51.20;;;;;;4994390;28;20072;-74
2022/06/19 09:49:06;;;;;;;2.85;0.95;;;28.60;51.10;;;;;;5012545;28;23745;-74
2022/06/19 09:51:44;;;;;;;3.45;0.75;;;28.30;50.10;;;;;;5005816;28;20068;-74
2022/06/19 09:54:35;;;;;;;2.03;0.80;;;28.30;51.50;;;;;;5006955;28;20049;-75
2022/06/19 09:57:11;;;;;;;2.60;1.30;;;28.30;51.70;;;;;;5014004;28;20086;-76
2022/06/19 09:59:53;;;;;;;3.35;0.70;;;28.40;50.30;;;;;;5016753;28;20045;-75
2022/06/19 10:02:45;;;;;;;2.15;0.90;;;28.30;50.50;;;;;;5014861;28;20057;-75
2022/06/19 10:05:27;;;;;;;2.25;0.85;;;28.30;49.40;;;;;;5009189;28;20045;-75
2022/06/19 10:07:56;;;;;;;;;;;28.40;50.60;;;;;;4999316;28;20060;-76
2022/06/19 10:10:33;;;;;;;1.67;0.60;;;28.40;50.00;;;;;;5011461;28;19929;-73
2022/06/19 10:13:05;;;;;;;2.47;0.77;;;28.40;49.80;;;;;;5004337;28;24384;-74
2022/06/19 10:15:36;;;;;;;1.52;0.50;;;28.40;49.00;;;;;;5001492;28;20132;-74
2022/06/19 10:18:21;;;;;;;0.77;0.52;;;28.50;49.10;;;;;;5009653;28;20065;-76
2022/06/19 10:22:13;;;;;;;5.18;0.70;;;28.40;48.90;;;;;;5012918;28;20061;-75
2022/06/19 10:24:15;;;;;;;4.72;0.60;;;28.50;47.60;;;;;;5013182;28;20054;-76
2022/06/19 10:26:59;;;;;;;0.77;0.40;;;28.50;48.60;;;;;;5020949;28;20049;-76
2022/06/19 10:29:51;;;;;;;1.63;0.50;;;28.50;48.10;;;;;;5011111;28;21343;-75
2022/06/19 10:32:38;;;;;;;1.57;0.50;;;28.40;49.00;;;;;;5014850;28;20068;-75
2022/06/19 10:35:09;;;;;;;0.80;0.40;;;28.50;48.50;;;;;;5019520;28;20295;-75
2022/06/19 10:38:03;;;;;;;1.63;0.50;;;28.60;47.70;;;;;;5009329;28;20136;-76
2022/06/19 10:41:05;;;;;;;1.42;0.40;;;28.70;49.70;;;;;;5035337;28;20054;-75
2022/06/19 10:43:32;;;;;;;2.50;0.70;;;28.60;48.20;;;;;;5021498;28;20057;-76
2022/06/19 10:46:06;;;;;;;2.63;1.00;;;28.60;49.00;;;;;;5025793;28;20057;-76
2022/06/19 10:48:52;;;;;;;0.75;0.32;;;28.60;49.00;;;;;;5020735;28;20050;-76
2022/06/19 10:51:38;;;;;;;0.90;0.45;;;28.60;49.20;;;;;;5027053;28;20053;-76
2022/06/19 10:54:16;;;;;;;1.38;0.40;;;28.70;47.00;;;;;;5032249;28;20132;-76
2022/06/19 10:56:55;;;;;;;2.17;0.80;;;28.60;47.90;;;;;;5017586;28;20147;-76
2022/06/19 10:59:23;;;;;;;1.67;0.40;;;28.70;47.20;;;;;;5017473;28;20061;-75
2022/06/19 11:05:05;;;;;;;2.78;0.40;;;28.70;47.50;;;;;;5017488;28;23707;-76
2022/06/19 11:07:33;;;;;;;1.40;0.40;;;28.70;47.50;;;;;;5021283;28;20306;-76
2022/06/19 11:10:16;;;;;;;1.52;0.50;;;28.80;48.30;;;;;;5017251;28;20124;-75
2022/06/19 11:12:48;;;;;;;1.17;0.45;;;28.90;47.00;;;;;;5018114;28;20207;-76
2022/06/19 11:15:25;;;;;;;1.25;0.40;;;28.90;47.10;;;;;;5014711;28;20539;-76
2022/06/19 11:18:13;;;;;;;3.83;1.00;;;28.80;47.30;;;;;;5021927;28;20187;-75
2022/06/19 11:20:54;;;;;;;2.05;0.93;;;28.80;46.70;;;;;;5018261;28;20056;-77
2022/06/19 11:23:31;;;;;;;1.15;0.30;;;28.80;46.40;;;;;;5014517;28;20180;-76
2022/06/19 11:26:19;;;;;;;2.42;0.43;;;28.90;46.10;;;;;;5019332;28;20488;-76
2022/06/19 11:28:55;;;;;;;1.10;0.60;;;28.90;44.90;;;;;;5019779;28;20560;-76
2022/06/19 11:31:32;;;;;;;1.13;0.50;;;28.90;46.00;;;;;;5013880;28;20754;-75
2022/06/19 11:37:29;;;;;;;3.65;0.60;;;29.00;47.20;;;;;;5019905;28;20053;-75
2022/06/19 11:39:59;;;;;;;1.08;0.43;;;28.90;46.80;;;;;;5030886;28;20044;-76
2022/06/19 11:42:37;;;;;;;1.40;0.40;;;28.90;47.00;;;;;;5004841;28;20057;-76
2022/06/19 11:45:13;;;;;;;0.93;0.43;;;28.90;47.70;;;;;;5019702;28;20140;-75
2022/06/19 11:48:11;;;;;;;2.15;0.75;;;29.10;47.90;;;;;;5018414;28;20751;-76
2022/06/19 11:50:38;;;;;;;1.80;0.60;;;29.00;46.80;;;;;;5016206;28;20062;-76
2022/06/19 11:53:06;;;;;;;1.35;0.65;;;29.20;47.20;;;;;;5004930;28;20530;-75
2022/06/19 11:55:36;;;;;;;0.90;0.45;;;29.10;46.10;;;;;;5014612;28;20076;-75
2022/06/19 11:58:26;;;;;;;3.33;0.65;;;29.00;45.60;;;;;;5009005;28;20060;-76
2022/06/19 12:01:02;;;;;;;0.70;0.30;;;28.90;46.40;;;;;;5016041;28;20064;-76
2022/06/19 12:03:40;;;;;;;0.65;0.32;;;29.10;46.30;;;;;;5009221;28;20157;-75
2022/06/19 12:06:10;;;;;;;1.10;0.47;;;29.10;44.90;;;;;;5010165;28;20061;-75
2022/06/19 12:08:51;;;;;;;2.78;0.40;;;29.10;46.60;;;;;;5002808;28;20755;-76
2022/06/19 12:11:42;;;;;;;1.38;0.38;;;29.10;46.20;;;;;;5016779;28;20037;-75
2022/06/19 12:14:11;;;;;;;1.33;0.45;;;29.20;46.50;;;;;;5017535;28;22427;-75
2022/06/19 12:16:40;;;;;;;1.98;0.40;;;29.20;45.70;;;;;;5017250;28;20053;-75
2022/06/19 12:19:30;;;;;;;1.42;0.20;;;29.20;46.90;;;;;;5014675;28;20067;-75
2022/06/19 12:22:03;;;;;;;2.05;0.70;;;29.30;46.70;;;;;;5020074;28;20073;-75
2022/06/19 12:24:49;;;;;;;1.40;0.20;;;29.20;45.40;;;;;;5016148;28;20076;-75
2022/06/19 12:27:19;;;;;;;1.88;0.30;;;29.30;45.60;;;;;;5016060;28;20623;-75
2022/06/19 12:29:54;;;;;;;0.95;0.30;;;29.30;46.60;;;;;;5000995;28;20143;-76
2022/06/19 12:32:31;;;;;;;1.30;0.30;;;29.30;47.10;;;;;;5007284;28;20138;-76
2022/06/19 12:35:03;;;;;;;0.93;0.40;;;29.20;46.40;;;;;;5021425;28;20041;-76
2022/06/19 12:37:32;;;;;;;1.63;0.40;;;29.20;46.70;;;;;;5019469;28;20073;-76
2022/06/19 12:39:59;;;;;;;1.33;0.40;;;29.20;47.40;;;;;;5021341;28;22494;-75
2022/06/19 12:43:07;;;;;;;1.20;0.70;;;29.20;47.60;;;;;;5010860;28;20045;-75
2022/06/19 12:45:54;;;;;;;4.72;0.50;;;29.10;46.00;;;;;;5016005;28;20057;-76
2022/06/19 12:48:24;;;;;;;2.05;0.40;;;29.10;46.20;;;;;;5014669;28;20072;-75
2022/06/19 12:51:14;;;;;;;3.60;0.30;;;29.10;45.90;;;;;;5012210;28;20048;-75
2022/06/19 12:54:06;;;;;;;0.47;0.20;;;29.20;47.10;;;;;;5011579;28;20963;-74
2022/06/19 12:56:58;;;;;;;1.65;0.30;;;29.40;47.10;;;;;;5020666;28;20926;-76
2022/06/19 12:59:40;;;;;;;1.90;0.40;;;29.40;47.40;;;;;;5022095;28;20164;-76
2022/06/19 13:02:16;;;;;;;;;;;29.60;46.20;;;;;;5019783;28;20841;-76
2022/06/19 13:05:21;;;;;;;2.17;0.32;;;29.40;46.40;;;;;;5013480;28;20030;-74
2022/06/19 13:08:01;;;;;;;3.15;0.40;;;29.50;46.80;;;;;;5008445;28;20049;-75
2022/06/19 13:11:20;;;;;;;0.95;0.50;;;29.60;47.30;;;;;;5016208;28;21359;-76
2022/06/19 13:14:08;;;;;;;1.45;0.30;;;29.50;45.80;;;;;;4983274;28;20131;-75
2022/06/19 13:16:54;;;;;;;1.73;0.30;;;29.50;46.50;;;;;;5015156;28;20049;-75
2022/06/19 13:19:40;;;;;;;1.23;0.43;;;29.50;45.70;;;;;;5016840;28;20053;-76
2022/06/19 13:22:37;;;;;;;1.52;0.30;;;29.50;45.50;;;;;;5014937;28;20053;-74
2022/06/19 13:25:23;;;;;;;0.95;0.30;;;29.40;45.70;;;;;;5010187;28;20158;-76
2022/06/19 13:28:11;;;;;;;0.73;0.38;;;29.50;45.70;;;;;;5013337;28;20860;-76
2022/06/19 13:31:11;;;;;;;1.30;0.40;;;29.50;45.00;;;;;;5004908;28;22360;-76